Time,TemperatureF,DewpointF,PressureIn,WindDirection,WindDirectionDegrees,WindSpeedMPH,WindSpeedGustMPH,Humidity,HourlyPrecipIn,Conditions,Clouds,dailyrainin,SoftwareType,DateUTC
2013-10-19 00:00:00,59.8,56.9,29.90,ESE,121,0.0,0.0,90,0.00,,,0.00,Wunderground PWS Mod,2013-10-19 04:00:00,
2013-10-19 00:05:00,59.8,56.9,29.90,ESE,121,0.0,0.0,90,0.00,,,0.00,Wunderground PWS Mod,2013-10-19 04:05:00,
2013-10-19 00:10:00,59.9,57.0,29.90,ESE,121,0.0,0.0,90,0.00,,,0.00,Wunderground PWS Mod,2013-10-19 04:10:00,
2013-10-19 00:15:00,59.8,57.2,29.88,N/A,-327680,0.0,0.0,91,0.00,,,0.00,Wunderground PWS Mod,2013-10-19 04:15:00,
2013-10-19 00:19:00,59.8,56.6,29.88,ESE,120,0.0,3.0,89,0.00,,,0.00,Wunderground PWS Mod,2013-10-19 04:19:00,
2013-10-19 00:20:00,59.8,57.2,29.88,N/A,-327680,0.0,0.0,91,0.00,,,0.00,Wunderground PWS Mod,2013-10-19 04:20:00,
2013-10-19 00:25:00,59.8,57.2,29.88,N/A,-327680,0.0,0.0,91,0.00,,,0.00,Wunderground PWS Mod,2013-10-19 04:25:00,
2013-10-19 00:29:00,59.6,56.4,29.88,ESE,109,0.0,3.0,89,0.00,,,0.00,Wunderground PWS Mod,2013-10-19 04:29:00,
2013-10-19 00:30:00,59.8,57.2,29.88,N/A,-327680,0.0,0.0,91,0.00,,,0.00,Wunderground PWS Mod,2013-10-19 04:30:00,
2013-10-19 00:35:00,59.8,57.2,29.88,N/A,-327680,0.0,0.0,91,0.00,,,0.00,Wunderground PWS Mod,2013-10-19 04:35:00,
2013-10-19 00:40:00,59.6,56.4,29.88,ESE,109,0.0,3.0,89,0.00,,,0.00,Wunderground PWS Mod,2013-10-19 04:40:00,
2013-10-19 00:45:00,59.8,57.2,29.86,N/A,-327680,0.0,0.0,91,0.00,,,0.00,Wunderground PWS Mod,2013-10-19 04:45:00,
2013-10-19 00:50:00,59.6,56.7,29.88,ESE,109,0.0,3.0,90,0.00,,,0.00,Wunderground PWS Mod,2013-10-19 04:50:00,
2013-10-19 00:55:00,59.8,57.2,29.86,N/A,-327680,0.0,0.0,91,0.00,,,0.00,Wunderground PWS Mod,2013-10-19 04:55:00,
2013-10-19 00:59:00,59.6,56.7,29.88,ESE,109,0.0,0.0,90,0.00,,,0.00,Wunderground PWS Mod,2013-10-19 04:59:00,
2013-10-19 01:00:00,59.8,57.2,29.86,N/A,-327680,0.0,0.0,91,0.00,,,0.00,Wunderground PWS Mod,2013-10-19 05:00:00,
2013-10-19 01:04:00,59.6,56.7,29.89,ESE,109,0.0,0.0,90,0.00,,,0.00,Wunderground PWS Mod,2013-10-19 05:04:00,
2013-10-19 01:05:00,59.8,57.2,29.86,N/A,-327680,0.0,0.0,91,0.00,,,0.00,Wunderground PWS Mod,2013-10-19 05:05:00,
2013-10-19 01:10:00,59.8,57.2,29.86,N/A,-327680,0.0,0.0,91,0.00,,,0.00,Wunderground PWS Mod,2013-10-19 05:10:00,
2013-10-19 01:15:00,59.8,56.9,29.89,ESE,109,0.0,0.0,90,0.00,,,0.00,Wunderground PWS Mod,2013-10-19 05:15:00,
2013-10-19 01:20:00,59.9,57.3,29.87,NE,50,0.0,2.0,91,0.00,,,0.00,Wunderground PWS Mod,2013-10-19 05:20:00,
2013-10-19 01:25:00,59.8,57.2,29.88,ESE,109,0.0,0.0,91,0.00,,,0.00,Wunderground PWS Mod,2013-10-19 05:25:00,
2013-10-19 01:29:00,59.8,57.2,29.88,ESE,109,0.0,0.0,91,0.00,,,0.00,Wunderground PWS Mod,2013-10-19 05:29:00,
2013-10-19 01:30:00,59.9,57.3,29.87,NE,50,0.0,2.0,91,0.00,,,0.00,Wunderground PWS Mod,2013-10-19 05:30:00,
2013-10-19 01:35:00,59.9,57.3,29.87,NE,50,0.0,2.0,91,0.00,,,0.00,Wunderground PWS Mod,2013-10-19 05:35:00,
2013-10-19 01:39:00,59.8,57.2,29.88,ESE,109,0.0,0.0,91,0.00,,,0.00,Wunderground PWS Mod,2013-10-19 05:39:00,
2013-10-19 01:40:00,59.9,57.3,29.87,NE,50,0.0,2.0,91,0.00,,,0.00,Wunderground PWS Mod,2013-10-19 05:40:00,
2013-10-19 01:45:00,60.1,57.5,29.86,NE,50,0.0,2.0,91,0.00,,,0.00,Wunderground PWS Mod,2013-10-19 05:45:00,
2013-10-19 01:50:00,59.8,57.2,29.87,ESE,109,0.0,0.0,91,0.00,,,0.00,Wunderground PWS Mod,2013-10-19 05:50:00,
2013-10-19 01:55:00,60.1,57.5,29.86,NE,50,0.0,2.0,91,0.00,,,0.00,Wunderground PWS Mod,2013-10-19 05:55:00,
2013-10-19 02:00:00,59.8,57.2,29.87,ESE,109,0.0,0.0,91,0.00,,,0.00,Wunderground PWS Mod,2013-10-19 06:00:00,
2013-10-19 02:05:00,60.1,57.5,29.86,NE,50,0.0,2.0,91,0.00,,,0.00,Wunderground PWS Mod,2013-10-19 06:05:00,
2013-10-19 02:09:00,59.8,57.2,29.86,ESE,109,0.0,0.0,91,0.00,,,0.00,Wunderground PWS Mod,2013-10-19 06:09:00,
2013-10-19 02:10:00,60.1,57.5,29.86,NE,50,0.0,2.0,91,0.00,,,0.00,Wunderground PWS Mod,2013-10-19 06:10:00,
2013-10-19 02:15:00,60.1,58.1,29.84,N/A,-327680,0.0,0.0,93,0.00,,,0.00,Wunderground PWS Mod,2013-10-19 06:15:00,
2013-10-19 02:20:00,59.9,57.6,29.87,ESE,109,0.0,0.0,92,0.00,,,0.00,Wunderground PWS Mod,2013-10-19 06:20:00,
2013-10-19 02:25:00,60.1,58.1,29.84,N/A,-327680,0.0,0.0,93,0.00,,,0.00,Wunderground PWS Mod,2013-10-19 06:25:00,
2013-10-19 02:30:00,59.9,57.6,29.87,ESE,109,0.0,0.0,92,0.00,,,0.00,Wunderground PWS Mod,2013-10-19 06:30:00,
2013-10-19 02:35:00,60.1,58.1,29.84,N/A,-327680,0.0,0.0,93,0.00,,,0.00,Wunderground PWS Mod,2013-10-19 06:35:00,
2013-10-19 02:40:00,59.9,57.3,29.87,ESE,109,0.0,0.0,91,0.00,,,0.00,Wunderground PWS Mod,2013-10-19 06:40:00,
2013-10-19 02:45:00,60.2,58.5,29.85,NE,50,0.0,3.0,94,0.00,,,0.00,Wunderground PWS Mod,2013-10-19 06:45:00,
2013-10-19 02:49:00,59.9,57.3,29.87,ESE,109,0.0,0.0,91,0.00,,,0.00,Wunderground PWS Mod,2013-10-19 06:49:00,
2013-10-19 02:50:00,60.2,58.5,29.85,NE,50,0.0,3.0,94,0.00,,,0.00,Wunderground PWS Mod,2013-10-19 06:50:00,
2013-10-19 02:55:00,60.1,57.5,29.87,ESE,109,0.0,0.0,91,0.00,,,0.00,Wunderground PWS Mod,2013-10-19 06:55:00,
2013-10-19 03:00:00,60.2,58.5,29.85,NE,50,0.0,3.0,94,0.00,,,0.00,Wunderground PWS Mod,2013-10-19 07:00:00,
2013-10-19 03:05:00,60.1,57.8,29.86,ESE,109,0.0,0.0,92,0.00,,,0.00,Wunderground PWS Mod,2013-10-19 07:05:00,
2013-10-19 03:10:00,60.2,58.5,29.85,NE,50,0.0,3.0,94,0.00,,,0.00,Wunderground PWS Mod,2013-10-19 07:10:00,
2013-10-19 03:14:00,60.1,57.8,29.86,ESE,109,0.0,0.0,92,0.00,,,0.00,Wunderground PWS Mod,2013-10-19 07:14:00,
2013-10-19 03:15:00,60.2,58.8,29.85,NE,50,0.0,1.0,95,0.00,,,0.00,Wunderground PWS Mod,2013-10-19 07:15:00,
2013-10-19 03:20:00,60.2,58.8,29.85,NE,50,0.0,1.0,95,0.00,,,0.00,Wunderground PWS Mod,2013-10-19 07:20:00,
2013-10-19 03:24:00,60.1,57.8,29.85,ESE,109,0.0,0.0,92,0.00,,,0.00,Wunderground PWS Mod,2013-10-19 07:24:00,
2013-10-19 03:25:00,60.2,58.8,29.85,NE,50,0.0,1.0,95,0.00,,,0.00,Wunderground PWS Mod,2013-10-19 07:25:00,
2013-10-19 03:30:00,60.2,57.9,29.85,ESE,109,0.0,0.0,92,0.00,,,0.00,Wunderground PWS Mod,2013-10-19 07:30:00,
2013-10-19 03:35:00,60.2,58.8,29.85,NE,50,0.0,1.0,95,0.00,,,0.00,Wunderground PWS Mod,2013-10-19 07:35:00,
2013-10-19 03:40:00,60.1,58.1,29.84,ESE,109,0.0,0.0,93,0.00,,,0.00,Wunderground PWS Mod,2013-10-19 07:40:00,
2013-10-19 03:45:00,60.1,58.7,29.85,NE,50,0.0,3.0,95,0.00,,,0.00,Wunderground PWS Mod,2013-10-19 07:45:00,
2013-10-19 03:49:00,60.2,58.2,29.85,ESE,109,0.0,0.0,93,0.00,,,0.00,Wunderground PWS Mod,2013-10-19 07:49:00,
2013-10-19 03:50:00,60.1,58.7,29.85,NE,50,0.0,3.0,95,0.00,,,0.00,Wunderground PWS Mod,2013-10-19 07:50:00,
2013-10-19 03:55:00,60.1,58.7,29.85,NE,50,0.0,3.0,95,0.00,,,0.00,Wunderground PWS Mod,2013-10-19 07:55:00,
2013-10-19 03:59:00,60.2,58.5,29.85,ESE,109,0.0,0.0,94,0.00,,,0.00,Wunderground PWS Mod,2013-10-19 07:59:00,
2013-10-19 04:00:00,60.1,58.7,29.85,NE,50,0.0,3.0,95,0.00,,,0.00,Wunderground PWS Mod,2013-10-19 08:00:00,
2013-10-19 04:05:00,60.2,58.5,29.85,ESE,109,0.0,0.0,94,0.00,,,0.00,Wunderground PWS Mod,2013-10-19 08:05:00,
2013-10-19 04:10:00,60.1,58.7,29.85,NE,50,0.0,3.0,95,0.00,,,0.00,Wunderground PWS Mod,2013-10-19 08:10:00,
2013-10-19 04:15:00,60.2,58.5,29.85,ESE,109,0.0,0.0,94,0.00,,,0.00,Wunderground PWS Mod,2013-10-19 08:15:00,
2013-10-19 04:20:00,60.1,59.0,29.85,N/A,-327680,0.0,0.0,96,0.00,,,0.00,Wunderground PWS Mod,2013-10-19 08:20:00,
2013-10-19 04:24:00,60.1,58.4,29.85,ESE,109,0.0,0.0,94,0.00,,,0.00,Wunderground PWS Mod,2013-10-19 08:24:00,
2013-10-19 04:25:00,60.1,59.0,29.85,N/A,-327680,0.0,0.0,96,0.00,,,0.00,Wunderground PWS Mod,2013-10-19 08:25:00,
2013-10-19 04:30:00,60.1,59.0,29.85,N/A,-327680,0.0,0.0,96,0.00,,,0.00,Wunderground PWS Mod,2013-10-19 08:30:00,
2013-10-19 04:34:00,60.2,58.8,29.85,ESE,109,0.0,0.0,95,0.00,,,0.00,Wunderground PWS Mod,2013-10-19 08:34:00,
2013-10-19 04:35:00,60.1,59.0,29.85,N/A,-327680,0.0,0.0,96,0.00,,,0.00,Wunderground PWS Mod,2013-10-19 08:35:00,
2013-10-19 04:40:00,60.1,59.0,29.85,N/A,-327680,0.0,0.0,96,0.00,,,0.00,Wunderground PWS Mod,2013-10-19 08:40:00,
2013-10-19 04:45:00,60.2,58.8,29.85,ESE,109,0.0,0.0,95,0.00,,,0.00,Wunderground PWS Mod,2013-10-19 08:45:00,
2013-10-19 04:50:00,60.1,59.2,29.84,NE,50,0.0,1.0,97,0.00,,,0.00,Wunderground PWS Mod,2013-10-19 08:50:00,
2013-10-19 04:55:00,60.2,58.8,29.85,ESE,109,0.0,0.0,95,0.00,,,0.00,Wunderground PWS Mod,2013-10-19 08:55:00,
2013-10-19 05:00:00,60.1,59.2,29.84,NE,50,0.0,1.0,97,0.00,,,0.00,Wunderground PWS Mod,2013-10-19 09:00:00,
2013-10-19 05:04:00,60.1,58.7,29.85,ESE,109,0.0,0.0,95,0.00,,,0.00,Wunderground PWS Mod,2013-10-19 09:04:00,
2013-10-19 05:05:00,60.1,59.2,29.84,NE,50,0.0,1.0,97,0.00,,,0.00,Wunderground PWS Mod,2013-10-19 09:05:00,
2013-10-19 05:10:00,60.1,59.2,29.84,NE,50,0.0,1.0,97,0.00,,,0.00,Wunderground PWS Mod,2013-10-19 09:10:00,
2013-10-19 05:14:00,60.1,58.7,29.85,ESE,109,0.0,0.0,95,0.00,,,0.00,Wunderground PWS Mod,2013-10-19 09:14:00,
2013-10-19 05:15:00,60.1,59.2,29.85,N/A,-327680,0.0,0.0,97,0.00,,,0.00,Wunderground PWS Mod,2013-10-19 09:15:00,
2013-10-19 05:20:00,60.1,59.0,29.84,ESE,109,0.0,0.0,96,0.00,,,0.00,Wunderground PWS Mod,2013-10-19 09:20:00,
2013-10-19 05:25:00,60.1,59.2,29.85,N/A,-327680,0.0,0.0,97,0.00,,,0.00,Wunderground PWS Mod,2013-10-19 09:25:00,
2013-10-19 05:30:00,60.1,59.0,29.84,ESE,109,0.0,0.0,96,0.00,,,0.00,Wunderground PWS Mod,2013-10-19 09:30:00,
2013-10-19 05:35:00,60.1,59.2,29.85,N/A,-327680,0.0,0.0,97,0.00,,,0.00,Wunderground PWS Mod,2013-10-19 09:35:00,
2013-10-19 05:39:00,60.1,59.0,29.85,ESE,109,0.0,0.0,96,0.00,,,0.00,Wunderground PWS Mod,2013-10-19 09:39:00,
2013-10-19 05:40:00,60.1,59.2,29.85,N/A,-327680,0.0,0.0,97,0.00,,,0.00,Wunderground PWS Mod,2013-10-19 09:40:00,
2013-10-19 05:45:00,60.1,59.2,29.84,NE,50,0.0,2.0,97,0.00,,,0.00,Wunderground PWS Mod,2013-10-19 09:45:00,
2013-10-19 05:50:00,60.1,59.2,29.84,ESE,109,0.0,0.0,97,0.00,,,0.00,Wunderground PWS Mod,2013-10-19 09:50:00,
2013-10-19 05:55:00,60.1,59.2,29.84,NE,50,0.0,2.0,97,0.00,,,0.00,Wunderground PWS Mod,2013-10-19 09:55:00,
2013-10-19 06:00:00,60.1,59.2,29.84,ESE,109,0.0,0.0,97,0.00,,,0.00,Wunderground PWS Mod,2013-10-19 10:00:00,
2013-10-19 06:05:00,60.1,59.2,29.84,NE,50,0.0,2.0,97,0.00,,,0.00,Wunderground PWS Mod,2013-10-19 10:05:00,
2013-10-19 06:09:00,60.1,59.2,29.84,ESE,109,0.0,0.0,97,0.00,,,0.00,Wunderground PWS Mod,2013-10-19 10:09:00,
2013-10-19 06:10:00,60.1,59.2,29.84,NE,50,0.0,2.0,97,0.00,,,0.00,Wunderground PWS Mod,2013-10-19 10:10:00,
2013-10-19 06:15:00,59.9,59.3,29.83,N/A,-327680,0.0,0.0,98,0.00,,,0.00,Wunderground PWS Mod,2013-10-19 10:15:00,
2013-10-19 06:20:00,60.1,59.2,29.85,ESE,109,0.0,0.0,97,0.00,,,0.00,Wunderground PWS Mod,2013-10-19 10:20:00,
2013-10-19 06:25:00,59.9,59.3,29.83,N/A,-327680,0.0,0.0,98,0.00,,,0.00,Wunderground PWS Mod,2013-10-19 10:25:00,
2013-10-19 06:30:00,60.1,59.2,29.85,ESE,109,0.0,0.0,97,0.00,,,0.00,Wunderground PWS Mod,2013-10-19 10:30:00,
2013-10-19 06:35:00,59.9,59.3,29.83,N/A,-327680,0.0,0.0,98,0.00,,,0.00,Wunderground PWS Mod,2013-10-19 10:35:00,
2013-10-19 06:40:00,60.1,59.2,29.85,ESE,109,0.0,0.0,97,0.00,,,0.00,Wunderground PWS Mod,2013-10-19 10:40:00,
2013-10-19 06:45:00,59.9,59.3,29.85,NE,50,0.0,2.0,98,0.00,,,0.00,Wunderground PWS Mod,2013-10-19 10:45:00,
2013-10-19 06:49:00,60.1,59.2,29.84,ESE,109,0.0,0.0,97,0.00,,,0.00,Wunderground PWS Mod,2013-10-19 10:49:00,
2013-10-19 06:50:00,59.9,59.3,29.85,NE,50,0.0,2.0,98,0.00,,,0.00,Wunderground PWS Mod,2013-10-19 10:50:00,
2013-10-19 06:55:00,59.9,59.3,29.85,NE,50,0.0,2.0,98,0.00,,,0.00,Wunderground PWS Mod,2013-10-19 10:55:00,
2013-10-19 07:00:00,60.1,59.2,29.84,ESE,109,0.0,0.0,97,0.00,,,0.00,Wunderground PWS Mod,2013-10-19 11:00:00,
2013-10-19 07:05:00,59.9,59.3,29.85,NE,50,0.0,2.0,98,0.00,,,0.00,Wunderground PWS Mod,2013-10-19 11:05:00,
2013-10-19 07:10:00,60.1,59.2,29.84,ESE,109,0.0,0.0,97,0.00,,,0.00,Wunderground PWS Mod,2013-10-19 11:10:00,
2013-10-19 07:15:00,60.1,59.8,29.85,NE,50,0.0,2.0,99,0.00,,,0.00,Wunderground PWS Mod,2013-10-19 11:15:00,
2013-10-19 07:19:00,60.1,59.2,29.84,ESE,109,0.0,0.0,97,0.00,,,0.00,Wunderground PWS Mod,2013-10-19 11:19:00,
2013-10-19 07:20:00,60.1,59.8,29.85,NE,50,0.0,2.0,99,0.00,,,0.00,Wunderground PWS Mod,2013-10-19 11:20:00,
2013-10-19 07:25:00,60.1,59.8,29.85,NE,50,0.0,2.0,99,0.00,,,0.00,Wunderground PWS Mod,2013-10-19 11:25:00,
2013-10-19 07:29:00,60.1,59.5,29.84,ESE,109,0.0,0.0,98,0.00,,,0.00,Wunderground PWS Mod,2013-10-19 11:29:00,
2013-10-19 07:30:00,60.1,59.8,29.85,NE,50,0.0,2.0,99,0.00,,,0.00,Wunderground PWS Mod,2013-10-19 11:30:00,
2013-10-19 07:35:00,60.1,59.5,29.83,ESE,109,0.0,0.0,98,0.00,,,0.00,Wunderground PWS Mod,2013-10-19 11:35:00,
2013-10-19 07:40:00,60.1,59.8,29.85,NE,50,0.0,2.0,99,0.00,,,0.00,Wunderground PWS Mod,2013-10-19 11:40:00,
2013-10-19 07:45:00,59.9,59.3,29.83,ESE,109,0.0,0.0,98,0.00,,,0.00,Wunderground PWS Mod,2013-10-19 11:45:00,
2013-10-19 07:50:00,60.5,60.2,29.86,ENE,60,0.0,1.0,99,0.00,,,0.00,Wunderground PWS Mod,2013-10-19 11:50:00,
2013-10-19 07:54:00,59.9,59.3,29.84,ESE,109,0.0,0.0,98,0.00,,,0.00,Wunderground PWS Mod,2013-10-19 11:54:00,
2013-10-19 07:55:00,60.5,60.2,29.86,ENE,60,0.0,1.0,99,0.00,,,0.00,Wunderground PWS Mod,2013-10-19 11:55:00,
2013-10-19 08:00:00,60.5,60.2,29.86,ENE,60,0.0,1.0,99,0.00,,,0.00,Wunderground PWS Mod,2013-10-19 12:00:00,
2013-10-19 08:04:00,59.9,59.3,29.85,ESE,109,0.0,0.0,98,0.00,,,0.00,Wunderground PWS Mod,2013-10-19 12:04:00,
2013-10-19 08:05:00,60.5,60.2,29.86,ENE,60,0.0,1.0,99,0.00,,,0.00,Wunderground PWS Mod,2013-10-19 12:05:00,
2013-10-19 08:10:00,59.9,59.3,29.85,ESE,115,0.0,0.0,98,0.00,,,0.00,Wunderground PWS Mod,2013-10-19 12:10:00,
2013-10-19 08:15:00,60.7,60.4,29.87,ENE,60,0.0,3.0,99,0.00,,,0.00,Wunderground PWS Mod,2013-10-19 12:15:00,
2013-10-19 08:19:00,59.9,59.3,29.86,SE,130,1.0,1.0,98,0.00,,,0.00,Wunderground PWS Mod,2013-10-19 12:19:00,
2013-10-19 08:20:00,60.7,60.4,29.87,ENE,60,0.0,3.0,99,0.00,,,0.00,Wunderground PWS Mod,2013-10-19 12:20:00,
2013-10-19 08:25:00,60.7,60.4,29.87,ENE,60,0.0,3.0,99,0.00,,,0.00,Wunderground PWS Mod,2013-10-19 12:25:00,
2013-10-19 08:29:00,60.1,59.8,29.86,SE,130,1.0,1.0,99,0.00,,,0.00,Wunderground PWS Mod,2013-10-19 12:29:00,
2013-10-19 08:30:00,60.7,60.4,29.87,ENE,60,0.0,3.0,99,0.00,,,0.00,Wunderground PWS Mod,2013-10-19 12:30:00,
2013-10-19 08:35:00,60.7,60.4,29.87,ENE,60,0.0,3.0,99,0.00,,,0.00,Wunderground PWS Mod,2013-10-19 12:35:00,
2013-10-19 08:40:00,60.2,59.9,29.85,SE,130,0.0,1.0,99,0.00,,,0.00,Wunderground PWS Mod,2013-10-19 12:40:00,
2013-10-19 08:45:00,61.2,60.9,29.86,SE,140,0.0,3.0,99,0.00,,,0.00,Wunderground PWS Mod,2013-10-19 12:45:00,
2013-10-19 08:50:00,60.4,60.1,29.86,SE,130,0.0,1.0,99,0.00,,,0.00,Wunderground PWS Mod,2013-10-19 12:50:00,
2013-10-19 08:55:00,60.4,60.1,29.86,SE,130,0.0,1.0,99,0.00,,,0.00,Wunderground PWS Mod,2013-10-19 12:55:00,
2013-10-19 09:00:00,61.2,60.9,29.86,SE,140,0.0,3.0,99,0.00,,,0.00,Wunderground PWS Mod,2013-10-19 13:00:00,
2013-10-19 09:05:00,60.5,60.2,29.86,SE,130,0.0,0.0,99,0.00,,,0.00,Wunderground PWS Mod,2013-10-19 13:05:00,
2013-10-19 09:10:00,61.2,60.9,29.86,SE,140,0.0,3.0,99,0.00,,,0.00,Wunderground PWS Mod,2013-10-19 13:10:00,
2013-10-19 09:14:00,60.5,60.2,29.86,SE,130,0.0,0.0,99,0.00,,,0.00,Wunderground PWS Mod,2013-10-19 13:14:00,
2013-10-19 09:15:00,62.0,61.4,29.86,SE,140,0.0,3.0,98,0.00,,,0.00,Wunderground PWS Mod,2013-10-19 13:15:00,
2013-10-19 09:20:00,62.0,61.4,29.86,SE,140,0.0,3.0,98,0.00,,,0.00,Wunderground PWS Mod,2013-10-19 13:20:00,
2013-10-19 09:25:00,60.7,60.4,29.87,North,355,0.0,0.0,99,0.00,,,0.00,Wunderground PWS Mod,2013-10-19 13:25:00,
2013-10-19 09:30:00,62.0,61.4,29.86,SE,140,0.0,3.0,98,0.00,,,0.00,Wunderground PWS Mod,2013-10-19 13:30:00,
2013-10-19 09:35:00,60.9,60.6,29.87,NW,307,0.0,0.0,99,0.00,,,0.00,Wunderground PWS Mod,2013-10-19 13:35:00,
2013-10-19 09:40:00,62.0,61.4,29.86,SE,140,0.0,3.0,98,0.00,,,0.00,Wunderground PWS Mod,2013-10-19 13:40:00,
2013-10-19 09:44:00,61.0,60.7,29.87,NW,307,0.0,0.0,99,0.00,,,0.00,Wunderground PWS Mod,2013-10-19 13:44:00,
2013-10-19 09:45:00,62.7,61.8,29.85,SE,130,0.0,4.0,97,0.00,,,0.00,Wunderground PWS Mod,2013-10-19 13:45:00,
2013-10-19 09:50:00,62.7,61.8,29.85,SE,130,0.0,4.0,97,0.00,,,0.00,Wunderground PWS Mod,2013-10-19 13:50:00,
2013-10-19 09:55:00,61.2,60.9,29.87,NW,307,0.0,0.0,99,0.00,,,0.00,Wunderground PWS Mod,2013-10-19 13:55:00,
2013-10-19 10:00:00,62.7,61.8,29.85,SE,130,0.0,4.0,97,0.00,,,0.00,Wunderground PWS Mod,2013-10-19 14:00:00,
2013-10-19 10:05:00,61.3,61.0,29.86,NW,308,0.0,0.0,99,0.00,,,0.00,Wunderground PWS Mod,2013-10-19 14:05:00,
2013-10-19 10:10:00,62.7,61.8,29.85,SE,130,0.0,4.0,97,0.00,,,0.00,Wunderground PWS Mod,2013-10-19 14:10:00,
2013-10-19 10:14:00,61.5,61.2,29.86,NW,307,0.0,0.0,99,0.00,,,0.00,Wunderground PWS Mod,2013-10-19 14:14:00,
2013-10-19 10:15:00,63.4,62.2,29.85,ESE,110,2.0,5.0,96,0.00,,,0.00,Wunderground PWS Mod,2013-10-19 14:15:00,
2013-10-19 10:20:00,63.4,62.2,29.85,ESE,110,2.0,5.0,96,0.00,,,0.00,Wunderground PWS Mod,2013-10-19 14:20:00,
2013-10-19 10:24:00,61.6,61.3,29.85,NW,307,0.0,2.0,99,0.00,,,0.00,Wunderground PWS Mod,2013-10-19 14:24:00,
2013-10-19 10:25:00,63.4,62.2,29.85,ESE,110,2.0,5.0,96,0.00,,,0.00,Wunderground PWS Mod,2013-10-19 14:25:00,
2013-10-19 10:30:00,62.0,61.4,29.85,NW,306,1.0,2.0,98,0.00,,,0.00,Wunderground PWS Mod,2013-10-19 14:30:00,
2013-10-19 10:35:00,62.0,61.4,29.86,WNW,302,0.0,2.0,98,0.00,,,0.00,Wunderground PWS Mod,2013-10-19 14:35:00,
2013-10-19 10:40:00,63.4,62.2,29.85,ESE,110,2.0,5.0,96,0.00,,,0.00,Wunderground PWS Mod,2013-10-19 14:40:00,
2013-10-19 10:45:00,62.3,61.7,29.86,WNW,302,0.0,2.0,98,0.00,,,0.00,Wunderground PWS Mod,2013-10-19 14:45:00,
2013-10-19 10:50:00,66.4,62.1,29.83,East,100,2.0,6.0,86,0.00,,,0.00,Wunderground PWS Mod,2013-10-19 14:50:00,
2013-10-19 10:54:00,62.4,61.8,29.85,WNW,289,0.0,2.0,98,0.00,,,0.00,Wunderground PWS Mod,2013-10-19 14:54:00,
2013-10-19 10:55:00,66.4,62.1,29.83,East,100,2.0,6.0,86,0.00,,,0.00,Wunderground PWS Mod,2013-10-19 14:55:00,
2013-10-19 11:00:00,66.4,62.1,29.83,East,100,2.0,6.0,86,0.00,,,0.00,Wunderground PWS Mod,2013-10-19 15:00:00,
2013-10-19 11:04:00,62.7,61.8,29.85,West,271,0.0,0.0,97,0.00,,,0.00,Wunderground PWS Mod,2013-10-19 15:04:00,
2013-10-19 11:05:00,66.4,62.1,29.83,East,100,2.0,6.0,86,0.00,,,0.00,Wunderground PWS Mod,2013-10-19 15:05:00,
2013-10-19 11:09:00,62.7,61.8,29.85,West,271,3.0,3.0,97,0.00,,,0.00,Wunderground PWS Mod,2013-10-19 15:09:00,
2013-10-19 11:10:00,66.4,62.1,29.83,East,100,2.0,6.0,86,0.00,,,0.00,Wunderground PWS Mod,2013-10-19 15:10:00,
2013-10-19 11:15:00,62.9,62.0,29.85,WSW,258,2.0,3.0,97,0.00,,,0.00,Wunderground PWS Mod,2013-10-19 15:15:00,
2013-10-19 11:20:00,68.9,56.2,29.82,East,100,3.0,13.0,64,0.00,,,0.00,Wunderground PWS Mod,2013-10-19 15:20:00,
2013-10-19 11:24:00,62.9,61.7,29.86,WSW,238,3.0,3.0,96,0.00,,,0.00,Wunderground PWS Mod,2013-10-19 15:24:00,
2013-10-19 11:25:00,68.9,56.2,29.82,East,100,3.0,13.0,64,0.00,,,0.00,Wunderground PWS Mod,2013-10-19 15:25:00,
2013-10-19 11:30:00,68.9,56.2,29.82,East,100,3.0,13.0,64,0.00,,,0.00,Wunderground PWS Mod,2013-10-19 15:30:00,
2013-10-19 11:34:00,63.9,63.0,29.85,SW,231,1.0,3.0,97,0.00,,,0.00,Wunderground PWS Mod,2013-10-19 15:34:00,
2013-10-19 11:35:00,68.9,56.2,29.82,East,100,3.0,13.0,64,0.00,,,0.00,Wunderground PWS Mod,2013-10-19 15:35:00,
2013-10-19 11:40:00,68.9,56.2,29.82,East,100,3.0,13.0,64,0.00,,,0.00,Wunderground PWS Mod,2013-10-19 15:40:00,
2013-10-19 11:45:00,65.3,63.2,29.85,SW,229,2.0,3.0,93,0.00,,,0.00,Wunderground PWS Mod,2013-10-19 15:45:00,
2013-10-19 11:50:00,69.6,58.2,29.81,East,100,4.0,12.0,67,0.00,,,0.00,Wunderground PWS Mod,2013-10-19 15:50:00,
2013-10-19 11:55:00,66.0,62.3,29.83,SW,231,1.0,3.0,88,0.00,,,0.00,Wunderground PWS Mod,2013-10-19 15:55:00,
2013-10-19 12:00:00,69.6,58.2,29.81,East,100,4.0,12.0,67,0.00,,,0.00,Wunderground PWS Mod,2013-10-19 16:00:00,
2013-10-19 12:04:00,66.4,62.1,29.83,SSE,163,0.0,1.0,86,0.00,,,0.00,Wunderground PWS Mod,2013-10-19 16:04:00,
2013-10-19 12:05:00,69.6,58.2,29.81,East,100,4.0,12.0,67,0.00,,,0.00,Wunderground PWS Mod,2013-10-19 16:05:00,
2013-10-19 12:10:00,69.6,58.2,29.81,East,100,4.0,12.0,67,0.00,,,0.00,Wunderground PWS Mod,2013-10-19 16:10:00,
2013-10-19 12:14:00,67.3,61.6,29.83,WSW,246,3.0,3.0,82,0.00,,,0.00,Wunderground PWS Mod,2013-10-19 16:14:00,
2013-10-19 12:15:00,69.4,57.5,29.80,ESE,110,4.0,11.0,66,0.00,,,0.00,Wunderground PWS Mod,2013-10-19 16:15:00,
2013-10-19 12:20:00,68.3,61.5,29.83,SW,227,2.0,3.0,79,0.00,,,0.00,Wunderground PWS Mod,2013-10-19 16:20:00,
2013-10-19 12:25:00,69.4,57.5,29.80,ESE,110,4.0,11.0,66,0.00,,,0.00,Wunderground PWS Mod,2013-10-19 16:25:00,
2013-10-19 12:29:00,68.9,55.8,29.83,SW,225,3.0,3.0,63,0.00,,,0.00,Wunderground PWS Mod,2013-10-19 16:29:00,
2013-10-19 12:30:00,69.4,57.5,29.80,ESE,110,4.0,11.0,66,0.00,,,0.00,Wunderground PWS Mod,2013-10-19 16:30:00,
2013-10-19 12:35:00,69.4,57.5,29.80,ESE,110,4.0,11.0,66,0.00,,,0.00,Wunderground PWS Mod,2013-10-19 16:35:00,
2013-10-19 12:39:00,68.9,55.3,29.82,West,265,6.0,6.0,62,0.00,,,0.00,Wunderground PWS Mod,2013-10-19 16:39:00,
2013-10-19 12:40:00,69.4,57.5,29.80,ESE,110,4.0,11.0,66,0.00,,,0.00,Wunderground PWS Mod,2013-10-19 16:40:00,
2013-10-19 12:45:00,69.3,57.0,29.82,SW,229,2.0,6.0,65,0.00,,,0.00,Wunderground PWS Mod,2013-10-19 16:45:00,
2013-10-19 12:50:00,68.9,56.2,29.78,ESE,110,4.0,12.0,64,0.00,,,0.00,Wunderground PWS Mod,2013-10-19 16:50:00,
2013-10-19 12:55:00,69.4,57.1,29.82,WSW,258,4.0,6.0,65,0.00,,,0.00,Wunderground PWS Mod,2013-10-19 16:55:00,
2013-10-19 13:00:00,68.9,56.2,29.78,ESE,110,4.0,12.0,64,0.00,,,0.00,Wunderground PWS Mod,2013-10-19 17:00:00,
2013-10-19 13:04:00,69.9,57.6,29.81,WSW,245,3.0,4.0,65,0.00,,,0.00,Wunderground PWS Mod,2013-10-19 17:04:00,
2013-10-19 13:05:00,68.9,56.2,29.78,ESE,110,4.0,12.0,64,0.00,,,0.00,Wunderground PWS Mod,2013-10-19 17:05:00,
2013-10-19 13:10:00,68.9,56.2,29.78,ESE,110,4.0,12.0,64,0.00,,,0.00,Wunderground PWS Mod,2013-10-19 17:10:00,
2013-10-19 13:14:00,70.3,57.5,29.81,SW,229,4.0,5.0,64,0.00,,,0.00,Wunderground PWS Mod,2013-10-19 17:14:00,
2013-10-19 13:15:00,69.4,56.7,29.78,ESE,120,4.0,13.0,64,0.00,,,0.00,Wunderground PWS Mod,2013-10-19 17:15:00,
2013-10-19 13:20:00,70.3,57.5,29.81,WSW,257,4.0,5.0,64,0.00,,,0.00,Wunderground PWS Mod,2013-10-19 17:20:00,
2013-10-19 13:25:00,69.4,56.7,29.78,ESE,120,4.0,13.0,64,0.00,,,0.00,Wunderground PWS Mod,2013-10-19 17:25:00,
2013-10-19 13:29:00,69.6,57.3,29.81,West,262,4.0,5.0,65,0.00,,,0.00,Wunderground PWS Mod,2013-10-19 17:29:00,
2013-10-19 13:30:00,69.4,56.7,29.78,ESE,120,4.0,13.0,64,0.00,,,0.00,Wunderground PWS Mod,2013-10-19 17:30:00,
2013-10-19 13:35:00,69.4,56.7,29.78,ESE,120,4.0,13.0,64,0.00,,,0.00,Wunderground PWS Mod,2013-10-19 17:35:00,
2013-10-19 13:39:00,69.4,57.5,29.80,WSW,255,1.0,5.0,66,0.00,,,0.00,Wunderground PWS Mod,2013-10-19 17:39:00,
2013-10-19 13:40:00,69.4,56.7,29.78,ESE,120,4.0,13.0,64,0.00,,,0.00,Wunderground PWS Mod,2013-10-19 17:40:00,
2013-10-19 13:45:00,69.4,57.5,29.78,ESE,110,4.0,10.0,66,0.00,,,0.00,Wunderground PWS Mod,2013-10-19 17:45:00,
2013-10-19 13:50:00,69.1,55.5,29.80,West,269,7.0,7.0,62,0.00,,,0.00,Wunderground PWS Mod,2013-10-19 17:50:00,
2013-10-19 13:55:00,69.4,57.5,29.78,ESE,110,4.0,10.0,66,0.00,,,0.00,Wunderground PWS Mod,2013-10-19 17:55:00,
2013-10-19 14:00:00,68.9,56.2,29.80,West,263,4.0,4.0,64,0.00,,,0.00,Wunderground PWS Mod,2013-10-19 18:00:00,
2013-10-19 14:05:00,69.4,57.5,29.78,ESE,110,4.0,10.0,66,0.00,,,0.00,Wunderground PWS Mod,2013-10-19 18:05:00,
2013-10-19 14:09:00,68.9,57.1,29.79,WSW,243,4.0,4.0,66,0.00,,,0.00,Wunderground PWS Mod,2013-10-19 18:09:00,
2013-10-19 14:10:00,69.4,57.5,29.78,ESE,110,4.0,10.0,66,0.00,,,0.00,Wunderground PWS Mod,2013-10-19 18:10:00,
2013-10-19 14:15:00,68.8,57.0,29.76,ESE,120,3.0,10.0,66,0.00,,,0.00,Wunderground PWS Mod,2013-10-19 18:15:00,
2013-10-19 14:19:00,69.4,56.7,29.78,SW,231,6.0,6.0,64,0.00,,,0.00,Wunderground PWS Mod,2013-10-19 18:19:00,
2013-10-19 14:20:00,68.8,57.0,29.76,ESE,120,3.0,10.0,66,0.00,,,0.00,Wunderground PWS Mod,2013-10-19 18:20:00,
2013-10-19 14:25:00,69.4,57.1,29.78,West,269,6.0,6.0,65,0.00,,,0.00,Wunderground PWS Mod,2013-10-19 18:25:00,
2013-10-19 14:30:00,68.8,57.0,29.76,ESE,120,3.0,10.0,66,0.00,,,0.00,Wunderground PWS Mod,2013-10-19 18:30:00,
2013-10-19 14:34:00,69.4,57.1,29.79,SW,221,3.0,6.0,65,0.00,,,0.00,Wunderground PWS Mod,2013-10-19 18:34:00,
2013-10-19 14:35:00,68.8,57.0,29.76,ESE,120,3.0,10.0,66,0.00,,,0.00,Wunderground PWS Mod,2013-10-19 18:35:00,
2013-10-19 14:40:00,69.4,56.7,29.79,West,259,4.0,6.0,64,0.00,,,0.00,Wunderground PWS Mod,2013-10-19 18:40:00,
2013-10-19 14:45:00,67.9,55.3,29.79,ESE,120,3.0,11.0,64,0.00,,,0.00,Wunderground PWS Mod,2013-10-19 18:45:00,
2013-10-19 14:50:00,69.8,57.1,29.78,WSW,258,3.0,6.0,64,0.00,,,0.00,Wunderground PWS Mod,2013-10-19 18:50:00,
2013-10-19 14:55:00,67.9,55.3,29.79,ESE,120,3.0,11.0,64,0.00,,,0.00,Wunderground PWS Mod,2013-10-19 18:55:00,
2013-10-19 14:59:00,69.4,57.1,29.78,SW,236,4.0,4.0,65,0.00,,,0.00,Wunderground PWS Mod,2013-10-19 18:59:00,
2013-10-19 15:00:00,67.9,55.3,29.79,ESE,120,3.0,11.0,64,0.00,,,0.00,Wunderground PWS Mod,2013-10-19 19:00:00,
2013-10-19 15:05:00,67.9,55.3,29.79,ESE,120,3.0,11.0,64,0.00,,,0.00,Wunderground PWS Mod,2013-10-19 19:05:00,
2013-10-19 15:09:00,69.3,57.9,29.78,West,259,2.0,4.0,67,0.00,,,0.00,Wunderground PWS Mod,2013-10-19 19:09:00,
2013-10-19 15:10:00,67.9,55.3,29.79,ESE,120,3.0,11.0,64,0.00,,,0.00,Wunderground PWS Mod,2013-10-19 19:10:00,
2013-10-19 15:15:00,69.3,57.5,29.78,West,261,4.0,4.0,66,0.00,,,0.00,Wunderground PWS Mod,2013-10-19 19:15:00,
2013-10-19 15:20:00,66.6,52.7,29.80,ESE,120,4.0,11.0,61,0.00,,,0.00,Wunderground PWS Mod,2013-10-19 19:20:00,
2013-10-19 15:25:00,68.9,57.5,29.78,SW,227,2.0,4.0,67,0.00,,,0.00,Wunderground PWS Mod,2013-10-19 19:25:00,
2013-10-19 15:30:00,66.6,52.7,29.80,ESE,120,4.0,11.0,61,0.00,,,0.00,Wunderground PWS Mod,2013-10-19 19:30:00,
2013-10-19 15:34:00,68.8,57.0,29.76,West,269,3.0,4.0,66,0.00,,,0.00,Wunderground PWS Mod,2013-10-19 19:34:00,
2013-10-19 15:35:00,66.6,52.7,29.80,ESE,120,4.0,11.0,61,0.00,,,0.00,Wunderground PWS Mod,2013-10-19 19:35:00,
2013-10-19 15:40:00,66.6,52.7,29.80,ESE,120,4.0,11.0,61,0.00,,,0.00,Wunderground PWS Mod,2013-10-19 19:40:00,
2013-10-19 15:44:00,68.4,56.6,29.76,WSW,240,3.0,4.0,66,0.00,,,0.00,Wunderground PWS Mod,2013-10-19 19:44:00,
2013-10-19 15:45:00,65.6,50.4,29.80,ESE,110,4.0,11.0,58,0.00,,,0.00,Wunderground PWS Mod,2013-10-19 19:45:00,
2013-10-19 15:50:00,65.6,50.4,29.80,ESE,110,4.0,11.0,58,0.00,,,0.00,Wunderground PWS Mod,2013-10-19 19:50:00,
2013-10-19 15:54:00,68.3,55.6,29.77,West,263,3.0,5.0,64,0.00,,,0.00,Wunderground PWS Mod,2013-10-19 19:54:00,
2013-10-19 15:55:00,65.6,50.4,29.80,ESE,110,4.0,11.0,58,0.00,,,0.00,Wunderground PWS Mod,2013-10-19 19:55:00,
2013-10-19 16:00:00,68.1,55.5,29.77,West,261,4.0,4.0,64,0.00,,,0.00,Wunderground PWS Mod,2013-10-19 20:00:00,
2013-10-19 16:05:00,67.8,55.2,29.79,West,269,1.0,4.0,64,0.00,,,0.00,Wunderground PWS Mod,2013-10-19 20:05:00,
2013-10-19 16:10:00,65.6,50.4,29.80,ESE,110,4.0,11.0,58,0.00,,,0.00,Wunderground PWS Mod,2013-10-19 20:10:00,
2013-10-19 16:15:00,67.3,53.8,29.79,West,259,2.0,4.0,62,0.00,,,0.00,Wunderground PWS Mod,2013-10-19 20:15:00,
2013-10-19 16:20:00,64.8,49.2,29.81,ESE,110,3.0,7.0,57,0.00,,,0.00,Wunderground PWS Mod,2013-10-19 20:20:00,
2013-10-19 16:24:00,66.8,52.9,29.80,West,261,5.0,6.0,61,0.00,,,0.00,Wunderground PWS Mod,2013-10-19 20:24:00,
2013-10-19 16:25:00,64.8,49.2,29.81,ESE,110,3.0,7.0,57,0.00,,,0.00,Wunderground PWS Mod,2013-10-19 20:25:00,
2013-10-19 16:30:00,64.8,49.2,29.81,ESE,110,3.0,7.0,57,0.00,,,0.00,Wunderground PWS Mod,2013-10-19 20:30:00,
2013-10-19 16:35:00,66.4,52.1,29.80,West,268,10.0,10.0,60,0.00,,,0.00,Wunderground PWS Mod,2013-10-19 20:35:00,
2013-10-19 16:40:00,64.8,49.2,29.81,ESE,110,3.0,7.0,57,0.00,,,0.00,Wunderground PWS Mod,2013-10-19 20:40:00,
2013-10-19 16:45:00,66.3,52.0,29.80,WSW,246,2.0,10.0,60,0.00,,,0.00,Wunderground PWS Mod,2013-10-19 20:45:00,
2013-10-19 16:50:00,66.1,51.4,29.80,West,260,3.0,10.0,59,0.00,,,0.00,Wunderground PWS Mod,2013-10-19 20:50:00,
2013-10-19 16:55:00,64.0,51.1,29.80,ESE,110,2.0,6.0,63,0.00,,,0.00,Wunderground PWS Mod,2013-10-19 20:55:00,
2013-10-19 16:59:00,65.8,50.6,29.80,WSW,243,3.0,3.0,58,0.00,,,0.00,Wunderground PWS Mod,2013-10-19 20:59:00,
2013-10-19 17:05:00,65.6,50.4,29.80,WSW,239,2.0,3.0,58,0.00,,,0.00,Wunderground PWS Mod,2013-10-19 21:05:00,
2013-10-19 17:10:00,64.0,51.1,29.80,ESE,110,2.0,6.0,63,0.00,,,0.00,Wunderground PWS Mod,2013-10-19 21:10:00,
2013-10-19 17:15:00,65.2,50.5,29.80,WSW,241,1.0,3.0,59,0.00,,,0.00,Wunderground PWS Mod,2013-10-19 21:15:00,
2013-10-19 17:20:00,63.1,51.6,29.81,ESE,110,2.0,6.0,66,0.00,,,0.00,Wunderground PWS Mod,2013-10-19 21:20:00,
2013-10-19 17:25:00,65.0,51.2,29.79,West,261,6.0,6.0,61,0.00,,,0.00,Wunderground PWS Mod,2013-10-19 21:25:00,
2013-10-19 17:30:00,63.1,51.6,29.81,ESE,110,2.0,6.0,66,0.00,,,0.00,Wunderground PWS Mod,2013-10-19 21:30:00,
2013-10-19 17:34:00,64.8,51.5,29.81,WSW,250,1.0,6.0,62,0.00,,,0.00,Wunderground PWS Mod,2013-10-19 21:34:00,
2013-10-19 17:35:00,63.1,51.6,29.81,ESE,110,2.0,6.0,66,0.00,,,0.00,Wunderground PWS Mod,2013-10-19 21:35:00,
2013-10-19 17:40:00,64.7,51.4,29.81,WSW,256,2.0,6.0,62,0.00,,,0.00,Wunderground PWS Mod,2013-10-19 21:40:00,
2013-10-19 17:45:00,62.0,52.1,29.81,ESE,110,1.0,4.0,70,0.00,,,0.00,Wunderground PWS Mod,2013-10-19 21:45:00,
2013-10-19 17:50:00,64.3,51.0,29.80,WSW,254,5.0,6.0,62,0.00,,,0.00,Wunderground PWS Mod,2013-10-19 21:50:00,
2013-10-19 17:55:00,62.0,52.1,29.81,ESE,110,1.0,4.0,70,0.00,,,0.00,Wunderground PWS Mod,2013-10-19 21:55:00,
2013-10-19 17:59:00,64.2,51.8,29.80,WSW,253,2.0,2.0,64,0.00,,,0.00,Wunderground PWS Mod,2013-10-19 21:59:00,
2013-10-19 18:00:00,62.0,52.1,29.81,ESE,110,1.0,4.0,70,0.00,,,0.00,Wunderground PWS Mod,2013-10-19 22:00:00,
2013-10-19 18:05:00,62.0,52.1,29.81,ESE,110,1.0,4.0,70,0.00,,,0.00,Wunderground PWS Mod,2013-10-19 22:05:00,
2013-10-19 18:09:00,63.9,51.5,29.80,WSW,254,3.0,3.0,64,0.00,,,0.00,Wunderground PWS Mod,2013-10-19 22:09:00,
2013-10-19 18:10:00,62.0,52.1,29.81,ESE,110,1.0,4.0,70,0.00,,,0.00,Wunderground PWS Mod,2013-10-19 22:10:00,
2013-10-19 18:15:00,61.8,52.3,29.81,ESE,110,1.0,4.0,71,0.00,,,0.00,Wunderground PWS Mod,2013-10-19 22:15:00,
2013-10-19 18:20:00,63.5,51.5,29.81,WSW,254,1.0,3.0,65,0.00,,,0.00,Wunderground PWS Mod,2013-10-19 22:20:00,
2013-10-19 18:25:00,61.8,52.3,29.81,ESE,110,1.0,4.0,71,0.00,,,0.00,Wunderground PWS Mod,2013-10-19 22:25:00,
2013-10-19 18:29:00,63.2,51.6,29.81,WSW,255,1.0,4.0,66,0.00,,,0.00,Wunderground PWS Mod,2013-10-19 22:29:00,
2013-10-19 18:30:00,61.8,52.3,29.81,ESE,110,1.0,4.0,71,0.00,,,0.00,Wunderground PWS Mod,2013-10-19 22:30:00,
2013-10-19 18:34:00,63.1,52.0,29.81,WSW,255,2.0,4.0,67,0.00,,,0.00,Wunderground PWS Mod,2013-10-19 22:34:00,
2013-10-19 18:35:00,61.8,52.3,29.81,ESE,110,1.0,4.0,71,0.00,,,0.00,Wunderground PWS Mod,2013-10-19 22:35:00,
2013-10-19 18:40:00,61.8,52.3,29.81,ESE,110,1.0,4.0,71,0.00,,,0.00,Wunderground PWS Mod,2013-10-19 22:40:00,
2013-10-19 18:44:00,62.4,52.1,29.81,WSW,255,0.0,4.0,69,0.00,,,0.00,Wunderground PWS Mod,2013-10-19 22:44:00,
2013-10-19 18:45:00,60.7,52.0,29.82,ESE,110,0.0,2.0,73,0.00,,,0.00,Wunderground PWS Mod,2013-10-19 22:45:00,
2013-10-19 18:50:00,62.3,51.6,29.80,WSW,255,1.0,4.0,68,0.00,,,0.00,Wunderground PWS Mod,2013-10-19 22:50:00,
2013-10-19 18:55:00,60.7,52.0,29.82,ESE,110,0.0,2.0,73,0.00,,,0.00,Wunderground PWS Mod,2013-10-19 22:55:00,
2013-10-19 19:00:00,62.1,52.2,29.80,WSW,255,0.0,0.0,70,0.00,,,0.00,Wunderground PWS Mod,2013-10-19 23:00:00,
2013-10-19 19:05:00,60.7,52.0,29.82,ESE,110,0.0,2.0,73,0.00,,,0.00,Wunderground PWS Mod,2013-10-19 23:05:00,
2013-10-19 19:09:00,61.8,51.9,29.81,WSW,255,0.0,1.0,70,0.00,,,0.00,Wunderground PWS Mod,2013-10-19 23:09:00,
2013-10-19 19:10:00,60.7,52.0,29.82,ESE,110,0.0,2.0,73,0.00,,,0.00,Wunderground PWS Mod,2013-10-19 23:10:00,
2013-10-19 19:15:00,59.8,52.2,29.83,ESE,110,0.0,1.0,76,0.00,,,0.00,Wunderground PWS Mod,2013-10-19 23:15:00,
2013-10-19 19:19:00,61.6,51.7,29.81,WSW,255,2.0,2.0,70,0.00,,,0.00,Wunderground PWS Mod,2013-10-19 23:19:00,
2013-10-19 19:20:00,59.8,52.2,29.83,ESE,110,0.0,1.0,76,0.00,,,0.00,Wunderground PWS Mod,2013-10-19 23:20:00,
2013-10-19 19:25:00,59.8,52.2,29.83,ESE,110,0.0,1.0,76,0.00,,,0.00,Wunderground PWS Mod,2013-10-19 23:25:00,
2013-10-19 19:30:00,61.8,52.3,29.81,WSW,255,0.0,2.0,71,0.00,,,0.00,Wunderground PWS Mod,2013-10-19 23:30:00,
2013-10-19 19:35:00,59.8,52.2,29.83,ESE,110,0.0,1.0,76,0.00,,,0.00,Wunderground PWS Mod,2013-10-19 23:35:00,
2013-10-19 19:40:00,61.5,52.0,29.81,WSW,255,0.0,2.0,71,0.00,,,0.00,Wunderground PWS Mod,2013-10-19 23:40:00,
2013-10-19 19:45:00,58.7,52.5,29.84,ESE,110,0.0,1.0,80,0.00,,,0.00,Wunderground PWS Mod,2013-10-19 23:45:00,
2013-10-19 19:49:00,61.2,52.1,29.81,WSW,255,0.0,2.0,72,0.00,,,0.00,Wunderground PWS Mod,2013-10-19 23:49:00,
2013-10-19 19:50:00,58.7,52.5,29.84,ESE,110,0.0,1.0,80,0.00,,,0.00,Wunderground PWS Mod,2013-10-19 23:50:00,
2013-10-19 19:54:00,61.0,52.3,29.81,WSW,255,0.0,2.0,73,0.00,,,0.00,Wunderground PWS Mod,2013-10-19 23:54:00,
2013-10-19 19:55:00,58.7,52.5,29.84,ESE,110,0.0,1.0,80,0.00,,,0.00,Wunderground PWS Mod,2013-10-19 23:55:00,
2013-10-19 20:00:00,60.7,52.0,29.81,WSW,255,0.0,0.0,73,0.00,,,0.00,Wunderground PWS Mod,2013-10-20 00:00:00,
2013-10-19 20:05:00,58.7,52.5,29.84,ESE,110,0.0,1.0,80,0.00,,,0.00,Wunderground PWS Mod,2013-10-20 00:05:00,
2013-10-19 20:10:00,60.5,52.2,29.82,WSW,255,0.0,0.0,74,0.00,,,0.00,Wunderground PWS Mod,2013-10-20 00:10:00,
2013-10-19 20:15:00,60.4,52.4,29.82,WSW,255,0.0,0.0,75,0.00,,,0.00,Wunderground PWS Mod,2013-10-20 00:15:00,
2013-10-19 20:20:00,58.1,52.6,29.84,ESE,110,0.0,1.0,82,0.00,,,0.00,Wunderground PWS Mod,2013-10-20 00:20:00,
2013-10-19 20:25:00,59.9,52.3,29.82,WSW,255,0.0,0.0,76,0.00,,,0.00,Wunderground PWS Mod,2013-10-20 00:25:00,
2013-10-19 20:30:00,58.1,52.6,29.84,ESE,110,0.0,1.0,82,0.00,,,0.00,Wunderground PWS Mod,2013-10-20 00:30:00,
2013-10-19 20:34:00,59.6,52.4,29.84,WSW,255,0.0,0.0,77,0.00,,,0.00,Wunderground PWS Mod,2013-10-20 00:34:00,
2013-10-19 20:35:00,58.1,52.6,29.84,ESE,110,0.0,1.0,82,0.00,,,0.00,Wunderground PWS Mod,2013-10-20 00:35:00,
2013-10-19 20:40:00,58.1,52.6,29.84,ESE,110,0.0,1.0,82,0.00,,,0.00,Wunderground PWS Mod,2013-10-20 00:40:00,
2013-10-19 20:44:00,59.3,52.1,29.84,WSW,255,0.0,0.0,77,0.00,,,0.00,Wunderground PWS Mod,2013-10-20 00:44:00,
2013-10-19 20:45:00,58.0,52.9,29.84,ESE,110,0.0,2.0,83,0.00,,,0.00,Wunderground PWS Mod,2013-10-20 00:45:00,
2013-10-19 20:50:00,59.0,52.1,29.83,WSW,255,0.0,0.0,78,0.00,,,0.00,Wunderground PWS Mod,2013-10-20 00:50:00,
2013-10-19 20:55:00,58.0,52.9,29.84,ESE,110,0.0,2.0,83,0.00,,,0.00,Wunderground PWS Mod,2013-10-20 00:55:00,
2013-10-19 21:00:00,58.7,52.2,29.83,WSW,255,0.0,0.0,79,0.00,,,0.00,Wunderground PWS Mod,2013-10-20 01:00:00,
2013-10-19 21:05:00,58.0,52.9,29.84,ESE,110,0.0,2.0,83,0.00,,,0.00,Wunderground PWS Mod,2013-10-20 01:05:00,
2013-10-19 21:09:00,58.4,52.3,29.84,WSW,255,0.0,0.0,80,0.00,,,0.00,Wunderground PWS Mod,2013-10-20 01:09:00,
2013-10-19 21:10:00,58.0,52.9,29.84,ESE,110,0.0,2.0,83,0.00,,,0.00,Wunderground PWS Mod,2013-10-20 01:10:00,
2013-10-19 21:15:00,57.0,52.5,29.84,N/A,-327680,0.0,0.0,85,0.00,,,0.00,Wunderground PWS Mod,2013-10-20 01:15:00,
2013-10-19 21:19:00,58.3,52.5,29.84,WSW,255,0.0,0.0,81,0.00,,,0.00,Wunderground PWS Mod,2013-10-20 01:19:00,
2013-10-19 21:20:00,57.0,52.5,29.84,N/A,-327680,0.0,0.0,85,0.00,,,0.00,Wunderground PWS Mod,2013-10-20 01:20:00,
2013-10-19 21:24:00,58.3,52.5,29.84,WSW,255,0.0,0.0,81,0.00,,,0.00,Wunderground PWS Mod,2013-10-20 01:24:00,
2013-10-19 21:25:00,57.0,52.5,29.84,N/A,-327680,0.0,0.0,85,0.00,,,0.00,Wunderground PWS Mod,2013-10-20 01:25:00,
2013-10-19 21:29:00,58.1,52.3,29.84,WSW,255,0.0,0.0,81,0.00,,,0.00,Wunderground PWS Mod,2013-10-20 01:29:00,
2013-10-19 21:30:00,57.0,52.5,29.84,N/A,-327680,0.0,0.0,85,0.00,,,0.00,Wunderground PWS Mod,2013-10-20 01:30:00,
2013-10-19 21:35:00,57.0,52.5,29.84,N/A,-327680,0.0,0.0,85,0.00,,,0.00,Wunderground PWS Mod,2013-10-20 01:35:00,
2013-10-19 21:40:00,58.3,52.8,29.84,WSW,255,0.0,0.0,82,0.00,,,0.00,Wunderground PWS Mod,2013-10-20 01:40:00,
2013-10-19 21:45:00,55.9,52.4,29.85,N/A,-327680,0.0,0.0,88,0.00,,,0.00,Wunderground PWS Mod,2013-10-20 01:45:00,
2013-10-19 21:50:00,58.3,52.8,29.84,WSW,255,0.0,0.0,82,0.00,,,0.00,Wunderground PWS Mod,2013-10-20 01:50:00,
2013-10-19 21:55:00,58.3,53.2,29.84,WSW,255,0.0,0.0,83,0.00,,,0.00,Wunderground PWS Mod,2013-10-20 01:55:00,
2013-10-19 22:00:00,55.9,52.4,29.85,N/A,-327680,0.0,0.0,88,0.00,,,0.00,Wunderground PWS Mod,2013-10-20 02:00:00,
2013-10-19 22:04:00,58.0,52.9,29.84,WSW,255,0.0,0.0,83,0.00,,,0.00,Wunderground PWS Mod,2013-10-20 02:04:00,
2013-10-19 22:05:00,55.9,52.4,29.85,N/A,-327680,0.0,0.0,88,0.00,,,0.00,Wunderground PWS Mod,2013-10-20 02:05:00,
2013-10-19 22:10:00,55.9,52.4,29.85,N/A,-327680,0.0,0.0,88,0.00,,,0.00,Wunderground PWS Mod,2013-10-20 02:10:00,
2013-10-19 22:14:00,57.5,52.4,29.84,WSW,255,0.0,0.0,83,0.00,,,0.00,Wunderground PWS Mod,2013-10-20 02:14:00,
2013-10-19 22:15:00,55.0,52.1,29.85,N/A,-327680,0.0,0.0,90,0.00,,,0.00,Wunderground PWS Mod,2013-10-20 02:15:00,
2013-10-19 22:20:00,55.0,52.1,29.85,N/A,-327680,0.0,0.0,90,0.00,,,0.00,Wunderground PWS Mod,2013-10-20 02:20:00,
2013-10-19 22:24:00,57.3,52.8,29.84,WSW,255,0.0,0.0,85,0.00,,,0.00,Wunderground PWS Mod,2013-10-20 02:24:00,
2013-10-19 22:25:00,55.0,52.1,29.85,N/A,-327680,0.0,0.0,90,0.00,,,0.00,Wunderground PWS Mod,2013-10-20 02:25:00,
2013-10-19 22:30:00,57.2,52.7,29.84,WSW,255,0.0,0.0,85,0.00,,,0.00,Wunderground PWS Mod,2013-10-20 02:30:00,
2013-10-19 22:35:00,55.0,52.1,29.85,N/A,-327680,0.0,0.0,90,0.00,,,0.00,Wunderground PWS Mod,2013-10-20 02:35:00,
2013-10-19 22:40:00,56.7,52.9,29.84,WSW,255,0.0,0.0,87,0.00,,,0.00,Wunderground PWS Mod,2013-10-20 02:40:00,
2013-10-19 22:45:00,56.6,52.8,29.84,WSW,255,0.0,0.0,87,0.00,,,0.00,Wunderground PWS Mod,2013-10-20 02:45:00,
2013-10-19 22:50:00,54.1,52.1,29.84,N/A,-327680,0.0,0.0,93,0.00,,,0.00,Wunderground PWS Mod,2013-10-20 02:50:00,
2013-10-19 22:54:00,56.2,52.7,29.85,WSW,255,0.0,0.0,88,0.00,,,0.00,Wunderground PWS Mod,2013-10-20 02:54:00,
2013-10-19 22:55:00,54.1,52.1,29.84,N/A,-327680,0.0,0.0,93,0.00,,,0.00,Wunderground PWS Mod,2013-10-20 02:55:00,
2013-10-19 23:00:00,54.1,52.1,29.84,N/A,-327680,0.0,0.0,93,0.00,,,0.00,Wunderground PWS Mod,2013-10-20 03:00:00,
2013-10-19 23:04:00,55.9,52.4,29.85,WSW,255,0.0,0.0,88,0.00,,,0.00,Wunderground PWS Mod,2013-10-20 03:04:00,
2013-10-19 23:05:00,54.1,52.1,29.84,N/A,-327680,0.0,0.0,93,0.00,,,0.00,Wunderground PWS Mod,2013-10-20 03:05:00,
2013-10-19 23:10:00,55.7,52.2,29.85,WSW,255,0.0,0.0,88,0.00,,,0.00,Wunderground PWS Mod,2013-10-20 03:10:00,
2013-10-19 23:15:00,53.2,51.8,29.85,N/A,-327680,0.0,0.0,95,0.00,,,0.00,Wunderground PWS Mod,2013-10-20 03:15:00,
2013-10-19 23:20:00,55.4,52.5,29.85,WSW,255,0.0,0.0,90,0.00,,,0.00,Wunderground PWS Mod,2013-10-20 03:20:00,
2013-10-19 23:25:00,53.2,51.8,29.85,N/A,-327680,0.0,0.0,95,0.00,,,0.00,Wunderground PWS Mod,2013-10-20 03:25:00,
2013-10-19 23:30:00,55.1,52.2,29.85,WSW,255,0.0,0.0,90,0.00,,,0.00,Wunderground PWS Mod,2013-10-20 03:30:00,
2013-10-19 23:35:00,53.2,51.8,29.85,N/A,-327680,0.0,0.0,95,0.00,,,0.00,Wunderground PWS Mod,2013-10-20 03:35:00,
2013-10-19 23:39:00,54.8,51.9,29.85,WSW,255,0.0,0.0,90,0.00,,,0.00,Wunderground PWS Mod,2013-10-20 03:39:00,
2013-10-19 23:40:00,53.2,51.8,29.85,N/A,-327680,0.0,0.0,95,0.00,,,0.00,Wunderground PWS Mod,2013-10-20 03:40:00,
2013-10-19 23:45:00,51.9,51.1,29.85,N/A,-327680,0.0,0.0,97,0.00,,,0.00,Wunderground PWS Mod,2013-10-20 03:45:00,
2013-10-19 23:49:00,54.5,52.2,29.84,WSW,255,0.0,0.0,92,0.00,,,0.00,Wunderground PWS Mod,2013-10-20 03:49:00,
2013-10-19 23:50:00,51.9,51.1,29.85,N/A,-327680,0.0,0.0,97,0.00,,,0.00,Wunderground PWS Mod,2013-10-20 03:50:00,
2013-10-19 23:55:00,54.4,52.4,29.84,WSW,255,0.0,0.0,93,0.00,,,0.00,Wunderground PWS Mod,2013-10-20 03:55:00,